Crew | Aerofun Virtual



 METAR AND TAF INFORMATION
METAR FOR YSCB
ADDS - METARS form results

(2150 UTC 26 February 2020)
Data provider http://aviationweather.gov/metar/data/
 
METAR text: YSCB 262143Z AUTO 36004KT 320V050 9999 // BKN018 15/11 Q1012
Conditions at: YSCB (CANBERRA (CIV/MI, AU) observed 2143 UTC 26 February 2020
Temperature: 15.0°C (59°F)
Dewpoint: 11.0°C (52°F) [RH = 77%]
Pressure (altimeter): 29.88 inches Hg (1012.0 mb)
Winds: from the N (360 degrees) at 5 MPH (4 knots; 2.1 m/s)
Visibility: 6 or more miles (10+ km)
Ceiling: 1800 feet AGL
Clouds: broken clouds at 1800 feet AGL
Weather: no significant weather observed at this time

METAR text: YSCB 262130Z AUTO 01004KT 9999 // SCT018 15/11 Q1012 RF00.0/000.0
Conditions at: YSCB (CANBERRA (CIV/MI, AU) observed 2130 UTC 26 February 2020
Temperature: 15.0°C (59°F)
Dewpoint: 11.0°C (52°F) [RH = 77%]
Pressure (altimeter): 29.88 inches Hg (1012.0 mb)
Winds: from the N (10 degrees) at 5 MPH (4 knots; 2.1 m/s)
Visibility: 6 or more miles (10+ km)
Ceiling: at least 12,000 feet AGL
Clouds: scattered clouds at 1800 feet AGL
Weather: no significant weather observed at this time

METAR text: YSCB 262121Z AUTO 01002KT 9999 // SCT018 14/10 Q1012 RF00/0/000/0
Conditions at: YSCB (CANBERRA (CIV/MI, AU) observed 2121 UTC 26 February 2020
Temperature: 14.0°C (57°F)
Dewpoint: 10.0°C (50°F) [RH = 77%]
Pressure (altimeter): 29.88 inches Hg (1012.0 mb)
Winds: from the N (10 degrees) at 2 MPH (2 knots; 1.0 m/s)
Visibility: 6 or more miles (10+ km)
Ceiling: at least 12,000 feet AGL
Clouds: scattered clouds at 1800 feet AGL
Weather: no significant weather observed at this time

METAR text: YSCB 262100Z AUTO 00000KT 9999 // SCT018 13/11 Q1012
Conditions at: YSCB (CANBERRA (CIV/MI, AU) observed 2100 UTC 26 February 2020
Temperature: 13.0°C (55°F)
Dewpoint: 11.0°C (52°F) [RH = 88%]
Pressure (altimeter): 29.88 inches Hg (1012.0 mb)
Winds: calm
Visibility: 6 or more miles (10+ km)
Ceiling: at least 12,000 feet AGL
Clouds: scattered clouds at 1800 feet AGL
Weather: no significant weather observed at this time

Forecast for: AMD
Text: TAF AMD YSCB 261657Z 2617/2718 12005KT 9999 SCT015
Forecast period: 1700 to 2200 UTC 26 February 2020
Forecast type: FROM: standard forecast or significant change
Winds: from the ESE (120 degrees) at 6 MPH (5 knots; 2.6 m/s)
Visibility: 6 or more miles 10+ km)
Ceiling: at least 12,000 feet AGL
Clouds: scattered clouds at 1500 feet AGL
Weather: no significant weather forecast for this period
Text: BECMG 2622/2700 30012KT CAVOK
Forecast period: 2200 UTC 26 February 2020 to 1400 UTC 27 February 2020
Forecast type: BECOMING: Conditions expected to become as follows by 0000 UTC 27 February 2020
Winds: from the WNW (300 degrees) at 14 MPH (12 knots; 6.2 m/s)
Visibility: 6 or more miles 10+ km)
Ceiling: unknown
Clouds: missing
Weather: NSW  (no significant weather)
Text: BECMG 2714/2716 VRB03KT CAVOK
Forecast period: 1400 to 1800 UTC 27 February 2020
Forecast type: BECOMING: Conditions expected to become as follows by 1600 UTC 27 February 2020
Winds: variable direction winds at 3 MPH (3 knots; 1.5 m/s)
Visibility: 6 or more miles 10+ km)
Ceiling: unknown
Clouds: missing
Weather: NSW  (no significant weather)
Text: TEMPO 2617/2622 9999 BKN015
Forecast period: 1700 to 2200 UTC 26 February 2020
Forecast type: TEMPORARY: The following changes expected for less than half the time period
Visibility: 6 or more miles 10+ km)
Ceiling: 1500 feet AGL
Clouds: broken clouds at 1500 feet AGL
Weather: no significant weather forecast for this period

 AIRPORT MAP

 RUNWAY INFORMATION
Runway 12 Runway length 5509 ft Runway width 148 ft
Runway elevation 1849 ft Runway displaced threshold 0 ft Runway heading 130
Runway 30 Runway length 5509 ft Runway width 148 ft
Runway elevation 1886 ft Runway displaced threshold 214 ft Runway heading 310
Runway 17 Runway length 10771 ft Runway width 148 ft
Runway elevation 1874 ft Runway displaced threshold 0 ft Runway heading 180
Runway 35 Runway length 10771 ft Runway width 148 ft
Runway elevation 1870 ft Runway displaced threshold 1968 ft Runway heading 360

 AIRPORT FREQUENCIES
Type APP/DEP EA Name Approach/D Frequency 124.5 MHZ
Type APP/DEP WE Name Approach/D Frequency 125.9 MHZ
Type ATIS Name ATIS Frequency 127.45 MHZ
Type ATIS/VOR Name ATIS AH Frequency 116.7 MHZ
Type GCCD Name GND CLNC D Frequency 121.7 MHZ
Type TWR/CTAF Name TWR (CTAF Frequency 118.7 MHZ

 AIRPORT NEAR NAVIGATION AIDS
Type VOR-DME Name Canberra Frequency 116700 KHZ
Type NDB Name Canberra Frequency 263 KHZ
Type NDB Name Church Creek Frequency 248 KHZ